Time;durP1;ratioP1;P1;durP2;ratioP2;P2;SDS_P1;SDS_P2;PMS_P1;PMS_P2;Temp;Humidity;BMP_temperature;BMP_pressure;BME280_temperature;BME280_humidity;BME280_pressure;Samples;Min_cycle;Max_cycle;Signal;HPM_P1;HPM_P2
2024/03/01 00:00:21;;;;;;;1999.90;999.90;;;8.20;99.90;;;;;;5053558;28;20104;-79
2024/03/01 00:02:48;;;;;;;1999.90;999.90;;;8.20;99.90;;;;;;5051784;28;20063;-78
2024/03/01 00:05:13;;;;;;;1999.90;999.90;;;8.20;99.90;;;;;;5053983;28;20499;-78
2024/03/01 00:07:39;;;;;;;1999.90;999.90;;;8.20;99.90;;;;;;5052314;28;20050;-79
2024/03/01 00:10:07;;;;;;;1999.90;999.90;;;8.20;99.90;;;;;;5052105;28;20029;-78
2024/03/01 00:12:33;;;;;;;1999.90;999.90;;;8.20;99.90;;;;;;5054787;28;20021;-79
2024/03/01 00:14:59;;;;;;;1999.90;999.90;;;8.20;99.90;;;;;;5052468;28;20380;-79
2024/03/01 00:17:25;;;;;;;1999.90;999.90;;;8.20;99.90;;;;;;5054399;28;20170;-79
2024/03/01 00:19:50;;;;;;;1999.90;999.90;;;8.10;99.90;;;;;;5052101;28;20024;-78
2024/03/01 00:22:16;;;;;;;1999.90;999.90;;;8.10;99.90;;;;;;5051998;28;20131;-80
2024/03/01 00:24:42;;;;;;;1999.90;999.90;;;8.10;99.90;;;;;;5064657;28;20068;-78
2024/03/01 00:27:08;;;;;;;1999.90;999.90;;;8.00;99.90;;;;;;5052242;28;20396;-78
2024/03/01 00:29:34;;;;;;;1999.90;999.90;;;8.00;99.90;;;;;;5053731;28;20434;-78
2024/03/01 00:31:59;;;;;;;1999.90;999.90;;;7.90;99.90;;;;;;5052867;28;20454;-79
2024/03/01 00:34:25;;;;;;;1999.90;999.90;;;7.90;99.90;;;;;;5052266;28;20025;-78
2024/03/01 00:36:51;;;;;;;1999.90;999.90;;;7.90;99.90;;;;;;5052838;28;20064;-78
2024/03/01 00:39:17;;;;;;;1999.90;999.90;;;8.00;99.90;;;;;;5053618;28;20099;-79
2024/03/01 00:41:43;;;;;;;1999.90;999.90;;;7.90;99.90;;;;;;5051944;28;20438;-79
2024/03/01 00:44:09;;;;;;;1999.90;999.90;;;7.90;99.90;;;;;;5053479;28;20044;-78
2024/03/01 00:46:36;;;;;;;1999.90;999.90;;;7.90;99.90;;;;;;5051834;28;20061;-78
2024/03/01 00:49:02;;;;;;;1999.90;999.90;;;7.90;99.90;;;;;;5053378;28;20060;-78
2024/03/01 00:51:27;;;;;;;1999.90;999.90;;;8.00;99.90;;;;;;5054683;28;20033;-78
2024/03/01 00:53:53;;;;;;;1999.90;999.90;;;8.10;99.90;;;;;;5052512;28;20029;-78
2024/03/01 00:56:19;;;;;;;1999.90;999.90;;;8.00;99.90;;;;;;5041259;28;20076;-79
2024/03/01 00:58:48;;;;;;;1999.90;999.90;;;7.90;99.90;;;;;;5034866;28;20029;-79
2024/03/01 01:01:13;;;;;;;1999.90;999.90;;;7.80;99.90;;;;;;5033255;28;20068;-78
2024/03/01 01:03:39;;;;;;;1999.90;999.90;;;7.70;99.90;;;;;;5040474;28;20025;-78
2024/03/01 01:06:05;;;;;;;1999.90;999.90;;;7.70;99.90;;;;;;5033148;28;20026;-79
2024/03/01 01:08:31;;;;;;;1999.90;999.90;;;7.70;99.90;;;;;;5031571;28;20045;-78
2024/03/01 01:10:59;;;;;;;1999.90;999.90;;;7.60;99.90;;;;;;5034312;28;20061;-78
2024/03/01 01:13:26;;;;;;;1999.90;999.90;;;7.50;99.90;;;;;;5031811;28;20401;-78
2024/03/01 01:15:52;;;;;;;1999.90;999.90;;;7.40;99.90;;;;;;5046141;28;20043;-79
2024/03/01 01:18:18;;;;;;;1999.90;999.90;;;7.30;99.90;;;;;;5054722;28;20140;-78
2024/03/01 01:20:45;;;;;;;1999.90;999.90;;;7.20;99.90;;;;;;5051544;28;20499;-79
2024/03/01 01:23:11;;;;;;;1999.90;999.90;;;7.30;99.90;;;;;;5055472;28;20021;-78
2024/03/01 01:25:36;;;;;;;1999.90;999.90;;;7.30;99.90;;;;;;5051551;28;20029;-81
2024/03/01 01:28:03;;;;;;;1999.90;999.90;;;7.30;99.90;;;;;;5050857;28;20506;-78
2024/03/01 01:30:28;;;;;;;1999.90;999.90;;;7.30;99.90;;;;;;5052458;28;20017;-78
2024/03/01 01:32:54;;;;;;;1999.90;999.90;;;7.40;99.90;;;;;;5052687;28;20032;-78
2024/03/01 01:35:19;;;;;;;1999.90;999.90;;;7.50;99.90;;;;;;5052770;28;20475;-78
2024/03/01 01:37:45;;;;;;;1999.90;999.90;;;7.60;99.90;;;;;;5053896;28;20051;-78
2024/03/01 01:40:12;;;;;;;1999.90;999.90;;;7.60;99.90;;;;;;5053130;28;20476;-80
2024/03/01 01:42:38;;;;;;;1999.90;999.90;;;7.60;99.90;;;;;;5058462;28;20021;-78
2024/03/01 01:45:05;;;;;;;1999.90;999.90;;;7.60;99.90;;;;;;5056229;28;20031;-78
2024/03/01 01:47:32;;;;;;;1999.90;999.90;;;7.70;99.90;;;;;;5051868;28;20411;-78
2024/03/01 01:49:57;;;;;;;1999.90;999.90;;;7.70;99.90;;;;;;5058550;28;20072;-78
2024/03/01 01:52:25;;;;;;;1999.90;999.90;;;7.70;99.90;;;;;;5054671;28;20060;-78
2024/03/01 01:54:51;;;;;;;1999.90;999.90;;;7.60;99.90;;;;;;5048541;28;20703;-78
2024/03/01 01:57:17;;;;;;;1999.90;999.90;;;7.60;99.90;;;;;;5038850;28;20039;-78
2024/03/01 01:59:44;;;;;;;1999.90;999.90;;;7.60;99.90;;;;;;5051541;28;20414;-78
2024/03/01 02:02:10;;;;;;;1999.90;999.90;;;7.60;99.90;;;;;;5051350;28;20021;-78
2024/03/01 02:04:36;;;;;;;1999.90;999.90;;;7.60;99.90;;;;;;5038371;28;20033;-78
2024/03/01 02:07:04;;;;;;;1999.90;999.90;;;7.70;99.90;;;;;;5067832;28;20032;-79
2024/03/01 02:09:30;;;;;;;1999.90;999.90;;;7.80;99.90;;;;;;5069416;28;20001;-78
2024/03/01 02:11:55;;;;;;;1999.90;999.90;;;7.90;99.90;;;;;;5035663;28;20511;-78
2024/03/01 02:14:21;;;;;;;1999.90;999.90;;;7.90;99.90;;;;;;5037330;28;20021;-79
2024/03/01 02:16:47;;;;;;;1999.90;999.90;;;8.00;99.90;;;;;;5055660;28;20032;-78
2024/03/01 02:19:17;;;;;;;1999.90;999.90;;;8.00;99.90;;;;;;5055434;28;20052;-78
2024/03/01 02:22:06;;;;;;;1999.90;999.90;;;8.10;99.90;;;;;;5055532;28;20394;-81
2024/03/01 02:24:31;;;;;;;1999.90;999.90;;;8.10;99.90;;;;;;5055076;28;20399;-78
2024/03/01 02:26:57;;;;;;;1999.90;999.90;;;8.20;99.90;;;;;;5054196;28;20033;-80
2024/03/01 02:29:23;;;;;;;1999.90;999.90;;;8.20;99.90;;;;;;5056461;28;20082;-81
2024/03/01 02:31:48;;;;;;;1999.90;999.90;;;8.20;99.90;;;;;;5055261;28;20036;-78
2024/03/01 02:34:14;;;;;;;1999.90;999.90;;;8.30;99.90;;;;;;5055519;28;20017;-78
2024/03/01 02:36:40;;;;;;;1999.90;999.90;;;8.30;99.90;;;;;;5054671;28;20021;-79
2024/03/01 02:39:16;;;;;;;1999.90;999.90;;;8.30;99.90;;;;;;5054012;28;20072;-78
2024/03/01 02:41:45;;;;;;;1999.90;999.90;;;8.30;99.90;;;;;;5053799;28;20025;-79
2024/03/01 02:44:12;;;;;;;1999.90;999.90;;;8.40;99.90;;;;;;5056029;28;20391;-78
2024/03/01 02:46:37;;;;;;;1999.90;999.90;;;8.40;99.90;;;;;;5055573;28;20060;-78
2024/03/01 02:49:03;;;;;;;1999.90;999.90;;;8.50;99.90;;;;;;5067295;28;20025;-78
2024/03/01 02:51:29;;;;;;;1999.90;999.90;;;8.70;99.90;;;;;;5055882;28;20029;-78
2024/03/01 02:53:55;;;;;;;1999.90;999.90;;;8.80;99.90;;;;;;5054984;28;20067;-80
2024/03/01 02:56:21;;;;;;;1999.90;999.90;;;8.80;99.90;;;;;;5045185;28;20033;-78
2024/03/01 02:58:46;;;;;;;1999.90;999.90;;;8.90;99.90;;;;;;5052738;28;20085;-78
2024/03/01 03:01:12;;;;;;;1999.90;999.90;;;8.80;99.90;;;;;;5053299;28;20056;-80
2024/03/01 03:03:38;;;;;;;1999.90;999.90;;;8.90;99.90;;;;;;5055682;28;20448;-78
2024/03/01 03:06:03;;;;;;;1999.90;999.90;;;9.00;99.90;;;;;;5053128;28;20100;-78
2024/03/01 03:08:29;;;;;;;1999.90;999.90;;;9.10;99.90;;;;;;5055823;28;20467;-79
2024/03/01 03:10:55;;;;;;;1999.90;999.90;;;9.10;99.90;;;;;;5057330;28;20062;-77
2024/03/01 03:13:20;;;;;;;1999.90;999.90;;;9.30;99.90;;;;;;5053270;28;20491;-77
2024/03/01 03:15:47;;;;;;;1999.90;999.90;;;9.30;99.90;;;;;;5060095;28;20060;-80
2024/03/01 03:18:13;;;;;;;1999.90;999.90;;;9.10;99.90;;;;;;5055787;28;20047;-78
2024/03/01 03:20:39;;;;;;;1999.90;999.90;;;9.10;99.90;;;;;;5053184;28;20028;-80
2024/03/01 03:23:05;;;;;;;1999.90;999.90;;;9.20;99.90;;;;;;5055219;28;20021;-78
2024/03/01 03:25:30;;;;;;;1999.90;999.90;;;9.30;99.90;;;;;;5054508;28;20112;-78
2024/03/01 03:27:59;;;;;;;1999.90;999.90;;;9.30;99.90;;;;;;5053990;28;20017;-78
2024/03/01 03:30:25;;;;;;;1999.90;999.90;;;9.40;99.90;;;;;;5055728;28;20040;-78
2024/03/01 03:32:51;;;;;;;1999.90;999.90;;;9.30;99.90;;;;;;5054245;28;20021;-78
2024/03/01 03:35:16;;;;;;;1999.90;999.90;;;9.10;99.90;;;;;;5054607;28;20035;-80
2024/03/01 03:37:42;;;;;;;1999.90;999.90;;;9.10;99.90;;;;;;5060373;28;20053;-78
2024/03/01 03:40:15;;;;;;;1999.90;999.90;;;9.10;99.90;;;;;;5054444;28;20036;-81
2024/03/01 03:42:44;;;;;;;1999.90;999.90;;;9.00;99.90;;;;;;5054897;28;20101;-78
2024/03/01 03:45:10;;;;;;;1999.90;999.90;;;9.20;99.90;;;;;;5052509;28;20044;-81
2024/03/01 03:47:37;;;;;;;1999.90;999.90;;;9.20;99.90;;;;;;5051733;28;20017;-77
2024/03/01 03:50:07;;;;;;;1999.90;999.90;;;9.10;99.90;;;;;;5053347;28;20032;-81
2024/03/01 03:52:36;;;;;;;1999.90;999.90;;;9.10;99.90;;;;;;5052538;28;20391;-77
2024/03/01 03:55:06;;;;;;;1999.90;999.90;;;9.10;99.90;;;;;;5049138;28;20032;-78
2024/03/01 03:57:33;;;;;;;1999.90;999.90;;;9.10;99.90;;;;;;5051908;28;20071;-78
2024/03/01 04:00:09;;;;;;;1999.90;999.90;;;9.10;99.90;;;;;;5053996;28;20531;-77
2024/03/01 04:02:38;;;;;;;1999.90;999.90;;;9.10;99.90;;;;;;5058094;28;20024;-79
2024/03/01 04:05:05;;;;;;;1999.90;999.90;;;9.10;99.90;;;;;;5055294;28;20171;-81
2024/03/01 04:07:31;;;;;;;1999.90;999.90;;;9.10;99.90;;;;;;5053901;28;20414;-81
2024/03/01 04:09:56;;;;;;;1999.90;999.90;;;9.00;99.90;;;;;;5053588;28;20028;-78
2024/03/01 04:12:22;;;;;;;1999.90;999.90;;;9.10;99.90;;;;;;5051659;28;20018;-78
2024/03/01 04:14:48;;;;;;;1999.90;999.90;;;9.00;99.90;;;;;;5049012;28;20123;-78
2024/03/01 04:17:13;;;;;;;1999.90;999.90;;;9.10;99.90;;;;;;5054979;28;20033;-78
2024/03/01 04:19:39;;;;;;;1999.90;999.90;;;9.10;99.90;;;;;;5052052;28;20549;-78
2024/03/01 04:22:05;;;;;;;1999.90;999.90;;;9.20;99.90;;;;;;5053681;28;20025;-77
2024/03/01 04:24:31;;;;;;;1999.90;999.90;;;9.10;99.90;;;;;;5053229;28;20040;-81
2024/03/01 04:26:57;;;;;;;1999.90;999.90;;;9.20;99.90;;;;;;5052277;28;20491;-80
2024/03/01 04:29:22;;;;;;;1999.90;999.90;;;9.20;99.90;;;;;;5054469;28;20028;-77
2024/03/01 04:31:48;;;;;;;1999.90;999.90;;;9.20;99.90;;;;;;5053160;28;20040;-77
2024/03/01 04:34:15;;;;;;;1999.90;999.90;;;9.30;99.90;;;;;;5053249;28;20024;-77
2024/03/01 04:36:41;;;;;;;1999.90;999.90;;;9.30;99.90;;;;;;5055094;28;20029;-77
2024/03/01 04:39:06;;;;;;;1999.90;999.90;;;9.30;99.90;;;;;;5051948;28;20032;-77
2024/03/01 04:41:32;;;;;;;1999.90;999.90;;;9.40;99.90;;;;;;5055646;28;20032;-78
2024/03/01 04:43:58;;;;;;;1999.90;999.90;;;9.50;99.90;;;;;;5051822;28;20029;-77
2024/03/01 04:46:23;;;;;;;1999.90;999.90;;;9.50;99.90;;;;;;5051948;28;20039;-77
2024/03/01 04:48:49;;;;;;;1999.90;999.90;;;9.50;99.90;;;;;;5052524;28;20513;-78
2024/03/01 04:51:15;;;;;;;1999.90;999.90;;;9.50;99.90;;;;;;5051909;28;20029;-77
2024/03/01 04:53:41;;;;;;;1999.90;999.90;;;9.60;99.90;;;;;;5053222;28;20028;-78
2024/03/01 04:56:10;;;;;;;1999.90;999.90;;;9.60;99.90;;;;;;5050535;28;20034;-78
2024/03/01 04:58:36;;;;;;;1999.90;999.90;;;9.60;99.90;;;;;;5031363;28;20060;-77
2024/03/01 05:01:02;;;;;;;1999.90;999.90;;;9.50;99.90;;;;;;5036419;28;20033;-77
2024/03/01 05:03:31;;;;;;;1999.90;999.90;;;9.50;99.90;;;;;;5032994;28;20085;-78
2024/03/01 05:05:57;;;;;;;1999.90;999.90;;;9.50;99.90;;;;;;5032968;28;20061;-80
2024/03/01 05:08:24;;;;;;;1999.90;999.90;;;9.60;99.90;;;;;;5034043;28;20047;-78
2024/03/01 05:10:50;;;;;;;1999.90;999.90;;;9.80;99.90;;;;;;5031824;28;20025;-78
2024/03/01 05:13:17;;;;;;;1999.90;999.90;;;9.80;99.90;;;;;;5035987;28;20021;-78
2024/03/01 05:15:43;;;;;;;1999.90;999.90;;;9.80;99.90;;;;;;5039542;28;20037;-81
2024/03/01 05:18:09;;;;;;;1999.90;999.90;;;9.90;99.90;;;;;;5052554;28;20487;-81
2024/03/01 05:20:34;;;;;;;1999.90;999.90;;;9.80;99.90;;;;;;5054260;28;20037;-77
2024/03/01 05:23:00;;;;;;;1999.90;999.90;;;9.90;99.90;;;;;;5053735;28;20059;-77
2024/03/01 05:25:26;;;;;;;1999.90;999.90;;;9.90;99.90;;;;;;5054943;28;20057;-81
2024/03/01 05:27:52;;;;;;;1999.90;999.90;;;9.90;99.90;;;;;;5056330;28;20040;-78
2024/03/01 05:30:23;;;;;;;1999.90;999.90;;;10.00;99.90;;;;;;5055447;28;20183;-78
2024/03/01 05:32:52;;;;;;;1999.90;999.90;;;10.10;99.90;;;;;;5056509;28;20434;-77
2024/03/01 05:35:21;;;;;;;1999.90;999.90;;;10.10;99.90;;;;;;5057328;28;20029;-78
2024/03/01 05:37:50;;;;;;;1999.90;999.90;;;10.10;99.90;;;;;;5056632;28;20511;-77
2024/03/01 05:40:16;;;;;;;1999.90;999.90;;;10.20;99.90;;;;;;5058024;28;20037;-78
2024/03/01 05:42:43;;;;;;;1999.90;999.90;;;10.30;99.90;;;;;;5069962;28;20179;-80
2024/03/01 05:45:10;;;;;;;1999.90;999.90;;;10.30;99.90;;;;;;5054906;28;20549;-78
2024/03/01 05:47:40;;;;;;;1999.90;999.90;;;10.30;99.90;;;;;;5055093;28;20036;-78
2024/03/01 05:50:07;;;;;;;1999.90;999.90;;;10.40;99.90;;;;;;5062599;28;20063;-77
2024/03/01 05:52:35;;;;;;;1999.90;999.90;;;10.50;99.90;;;;;;5052381;28;20047;-77
2024/03/01 05:55:03;;;;;;;1999.90;999.90;;;10.50;99.90;;;;;;5051184;28;20056;-77
2024/03/01 05:57:30;;;;;;;1999.90;999.90;;;10.60;99.90;;;;;;5043097;28;20043;-77
2024/03/01 05:59:56;;;;;;;1999.90;999.90;;;10.60;99.90;;;;;;5054561;28;20059;-78
2024/03/01 06:02:23;;;;;;;1999.90;999.90;;;10.60;99.90;;;;;;5056136;28;20407;-78
2024/03/01 06:04:48;;;;;;;1999.90;999.90;;;10.70;99.90;;;;;;5054346;28;20033;-81
2024/03/01 06:07:15;;;;;;;1999.90;999.90;;;10.70;99.90;;;;;;5054514;28;20025;-77
2024/03/01 06:09:41;;;;;;;1999.90;999.90;;;10.60;99.90;;;;;;5046197;28;20037;-82
2024/03/01 06:12:07;;;;;;;1999.90;999.90;;;10.70;99.90;;;;;;5036172;28;20029;-78
2024/03/01 06:14:32;;;;;;;1999.90;999.90;;;10.70;99.90;;;;;;5036952;28;20025;-82
2024/03/01 06:16:58;;;;;;;1999.90;999.90;;;10.70;99.90;;;;;;5056742;28;20041;-78
2024/03/01 06:19:23;;;;;;;1999.90;999.90;;;10.70;99.90;;;;;;5054122;28;20045;-78
2024/03/01 06:21:50;;;;;;;1999.90;999.90;;;10.80;99.90;;;;;;5055030;28;20388;-78
2024/03/01 06:24:15;;;;;;;1999.90;999.90;;;10.70;99.90;;;;;;5055647;28;20442;-81
2024/03/01 06:26:41;;;;;;;1999.90;999.90;;;10.80;99.90;;;;;;5055627;28;20047;-78
2024/03/01 06:29:07;;;;;;;1999.90;999.90;;;10.80;99.90;;;;;;5057665;28;20128;-80
2024/03/01 06:31:32;;;;;;;1999.90;999.90;;;10.80;99.90;;;;;;5055744;28;20396;-77
2024/03/01 06:34:01;;;;;;;1999.90;999.90;;;10.80;99.90;;;;;;5055614;28;20373;-77
2024/03/01 06:36:26;;;;;;;1999.90;999.90;;;10.90;99.90;;;;;;5056044;28;20029;-77
2024/03/01 06:38:52;;;;;;;1999.90;999.90;;;10.90;99.90;;;;;;5053852;28;20514;-77
2024/03/01 06:41:18;;;;;;;1999.90;999.90;;;10.80;99.90;;;;;;5054632;28;20411;-77
2024/03/01 06:43:43;;;;;;;1999.90;999.90;;;10.80;99.90;;;;;;5053580;28;20032;-78
2024/03/01 06:46:09;;;;;;;1999.90;999.90;;;10.80;99.90;;;;;;5055047;28;20057;-78
2024/03/01 06:48:34;;;;;;;1999.90;999.90;;;10.80;99.90;;;;;;5056502;28;20568;-77
2024/03/01 06:51:00;;;;;;;1999.90;999.90;;;10.80;99.90;;;;;;5055133;28;20033;-78
2024/03/01 06:53:27;;;;;;;1999.90;999.90;;;10.80;99.90;;;;;;5058849;28;20008;-82
2024/03/01 06:55:55;;;;;;;1999.90;999.90;;;10.80;99.90;;;;;;5052154;28;20484;-78
2024/03/01 06:58:20;;;;;;;1999.90;999.90;;;10.90;99.90;;;;;;5047548;28;20021;-78
2024/03/01 07:00:47;;;;;;;1999.90;999.90;;;11.00;99.90;;;;;;5054858;28;20025;-78
2024/03/01 07:03:16;;;;;;;1999.90;999.90;;;11.00;99.90;;;;;;5049944;28;20412;-77
2024/03/01 07:05:42;;;;;;;1999.90;999.90;;;11.10;99.90;;;;;;5057908;28;20079;-78
2024/03/01 07:08:08;;;;;;;1999.90;999.90;;;11.20;99.90;;;;;;5035471;28;20029;-81
2024/03/01 07:10:33;;;;;;;1999.90;999.90;;;11.10;99.90;;;;;;5034469;28;20493;-82
2024/03/01 07:12:59;;;;;;;1999.90;999.90;;;11.20;99.90;;;;;;5035146;28;20022;-77
2024/03/01 07:15:29;;;;;;;1999.90;999.90;;;11.20;99.90;;;;;;5075504;28;20042;-78
2024/03/01 07:17:58;;;;;;;1999.90;999.90;;;11.10;99.90;;;;;;5052230;28;20041;-82
2024/03/01 07:20:24;;;;;;;1999.90;999.90;;;11.10;99.90;;;;;;5054227;28;20033;-78
2024/03/01 07:22:50;;;;;;;1999.90;999.90;;;11.00;99.90;;;;;;5054657;28;20106;-82
2024/03/01 07:25:17;;;;;;;1999.90;999.90;;;11.00;99.90;;;;;;5054226;28;20029;-78
2024/03/01 07:27:42;;;;;;;1999.90;999.90;;;11.00;99.90;;;;;;5054936;28;20024;-80
2024/03/01 07:30:09;;;;;;;1999.90;999.90;;;11.00;99.90;;;;;;5051844;28;20033;-79
2024/03/01 07:32:35;;;;;;;1999.90;999.90;;;11.00;99.90;;;;;;5053117;28;20018;-79
2024/03/01 07:35:03;;;;;;;1999.90;999.90;;;10.90;99.90;;;;;;5051893;28;20082;-81
2024/03/01 07:37:29;;;;;;;1999.90;999.90;;;10.90;99.90;;;;;;5053494;28;20029;-80
2024/03/01 07:39:56;;;;;;;1999.90;999.90;;;10.90;99.90;;;;;;5047036;28;20068;-83
2024/03/01 07:42:26;;;;;;;1999.90;999.90;;;10.90;99.90;;;;;;5052821;28;20116;-80
2024/03/01 07:44:53;;;;;;;1999.90;999.90;;;11.10;99.90;;;;;;5062156;28;20029;-81
2024/03/01 07:47:18;;;;;;;1999.90;999.90;;;11.10;99.90;;;;;;5071849;28;20075;-80
2024/03/01 07:49:48;;;;;;;1999.90;999.90;;;11.20;99.90;;;;;;5072783;28;20028;-80
2024/03/01 07:52:13;;;;;;;1999.90;999.90;;;11.30;99.90;;;;;;5053643;28;20435;-81
2024/03/01 07:54:39;;;;;;;1999.90;999.90;;;11.40;99.90;;;;;;5050661;28;20053;-81
2024/03/01 07:57:05;;;;;;;1999.90;999.90;;;11.40;99.90;;;;;;5052158;28;20100;-81
2024/03/01 07:59:32;;;;;;;1999.90;999.90;;;11.50;99.90;;;;;;5051795;28;20562;-81
2024/03/01 08:01:58;;;;;;;1999.90;999.90;;;11.60;99.90;;;;;;5054106;28;20025;-81
2024/03/01 08:04:24;;;;;;;1999.90;999.90;;;11.70;99.90;;;;;;5072144;28;20036;-81
2024/03/01 08:06:50;;;;;;;1999.90;999.90;;;11.80;99.90;;;;;;5073063;28;20035;-81
2024/03/01 08:09:17;;;;;;;1999.90;999.90;;;11.80;99.90;;;;;;5084283;28;20037;-80
2024/03/01 08:11:45;;;;;;;1999.90;999.90;;;11.90;99.90;;;;;;5071530;28;20111;-81
2024/03/01 08:14:27;;;;;;;1999.90;999.90;;;11.90;99.90;;;;;;5071454;28;20035;-80
2024/03/01 08:16:54;;;;;;;1999.90;999.90;;;11.90;99.90;;;;;;5053698;28;20103;-80
2024/03/01 08:19:22;;;;;;;1999.90;999.90;;;11.90;99.90;;;;;;5059924;28;20057;-80
2024/03/01 08:21:52;;;;;;;1999.90;999.90;;;12.00;99.90;;;;;;5051313;28;20036;-80
2024/03/01 08:24:24;;;;;;;1999.90;999.90;;;12.00;99.90;;;;;;5051293;28;20035;-81
2024/03/01 08:26:50;;;;;;;1999.90;999.90;;;12.10;99.90;;;;;;5050333;28;20083;-81
2024/03/01 08:29:17;;;;;;;1999.90;999.90;;;12.10;99.90;;;;;;5079081;28;20040;-81
2024/03/01 08:31:43;;;;;;;1999.90;999.90;;;12.20;99.90;;;;;;5065586;28;20024;-82
2024/03/01 08:34:20;;;;;;;1999.90;999.90;;;12.20;99.90;;;;;;5047569;28;20033;-80
2024/03/01 08:36:46;;;;;;;1999.90;999.90;;;12.20;99.90;;;;;;5050837;28;20471;-80
2024/03/01 08:39:21;;;;;;;1999.90;999.90;;;12.30;99.90;;;;;;5051137;28;20040;-80
2024/03/01 08:41:49;;;;;;;1999.90;999.90;;;12.40;99.90;;;;;;5057195;28;20060;-80
2024/03/01 08:44:42;;;;;;;1999.90;999.90;;;12.40;99.90;;;;;;5054599;28;20037;-80
2024/03/01 08:47:24;;;;;;;1999.90;999.90;;;12.30;99.90;;;;;;5051867;28;20465;-81
2024/03/01 08:49:51;;;;;;;1999.90;999.90;;;12.30;99.90;;;;;;5032271;28;20021;-80
2024/03/01 08:52:37;;;;;;;1999.90;999.90;;;12.30;99.90;;;;;;5042161;28;20108;-79
2024/03/01 08:55:09;;;;;;;1999.90;999.90;;;12.40;99.90;;;;;;5052544;28;20029;-79
2024/03/01 08:57:37;;;;;;;1999.90;999.90;;;12.50;99.90;;;;;;5055298;28;20021;-80
2024/03/01 09:00:23;;;;;;;1999.90;999.90;;;12.50;99.90;;;;;;5055615;28;20036;-79
2024/03/01 09:02:50;;;;;;;1999.90;999.90;;;12.50;99.90;;;;;;5054495;28;20028;-78
2024/03/01 09:05:16;;;;;;;1999.90;999.90;;;12.60;99.90;;;;;;5056461;28;20048;-81
2024/03/01 09:07:41;;;;;;;1999.90;999.90;;;12.60;99.90;;;;;;5057170;28;20017;-80
2024/03/01 09:10:34;;;;;;;1999.90;999.90;;;12.70;99.90;;;;;;5054959;28;20466;-81
2024/03/01 09:13:00;;;;;;;1999.90;999.90;;;12.70;99.90;;;;;;5054333;28;20026;-81
2024/03/01 09:15:34;;;;;;;1999.90;999.90;;;12.70;99.90;;;;;;5066467;28;20084;-78
2024/03/01 09:18:01;;;;;;;1999.90;999.90;;;12.70;99.90;;;;;;5041866;28;20103;-81
2024/03/01 09:20:37;;;;;;;1999.90;999.90;;;12.70;99.90;;;;;;5055457;28;20021;-80
2024/03/01 09:23:13;;;;;;;1999.90;999.90;;;12.70;99.90;;;;;;5055118;28;20029;-80
2024/03/01 09:25:48;;;;;;;1999.90;999.90;;;12.70;99.90;;;;;;5053827;28;20068;-79
2024/03/01 09:28:15;;;;;;;1999.90;999.90;;;12.70;99.90;;;;;;5054754;28;20045;-80
2024/03/01 09:30:44;;;;;;;1999.90;999.90;;;12.80;99.90;;;;;;5055819;28;20025;-79
2024/03/01 09:33:12;;;;;;;1999.90;999.90;;;12.80;99.90;;;;;;5062077;28;20059;-79
2024/03/01 09:35:38;;;;;;;1999.90;999.90;;;12.90;99.90;;;;;;5058746;28;20394;-79
2024/03/01 09:38:06;;;;;;;1999.90;999.90;;;12.90;99.90;;;;;;5076804;28;20035;-79
2024/03/01 09:40:37;;;;;;;1999.90;999.90;;;12.90;99.90;;;;;;5071138;28;20040;-79
2024/03/01 09:43:18;;;;;;;1999.90;999.90;;;12.90;99.90;;;;;;5054793;28;20108;-79
2024/03/01 09:46:03;;;;;;;1999.90;999.90;;;12.90;99.90;;;;;;5070254;28;20088;-78
2024/03/01 09:48:55;;;;;;;1999.90;999.90;;;13.00;99.90;;;;;;5078103;28;20036;-80
2024/03/01 09:51:55;;;;;;;1999.90;999.90;;;13.00;99.90;;;;;;5066037;28;20112;-80
2024/03/01 09:54:41;;;;;;;1999.90;999.90;;;13.10;99.90;;;;;;5052794;28;20070;-79
2024/03/01 09:57:19;;;;;;;1999.90;999.90;;;13.20;99.90;;;;;;5070748;28;20100;-79
2024/03/01 09:59:56;;;;;;;1999.90;999.90;;;13.30;99.90;;;;;;5062711;28;20032;-78
2024/03/01 10:02:43;;;;;;;1999.90;999.90;;;13.40;99.90;;;;;;5054148;28;20102;-79
2024/03/01 10:05:32;;;;;;;1999.90;999.90;;;13.30;99.90;;;;;;5059397;28;20053;-79
2024/03/01 10:08:27;;;;;;;1999.90;999.90;;;12.40;99.90;;;;;;5056091;28;20021;-79
2024/03/01 10:11:15;;;;;;;1999.90;999.90;;;11.90;99.90;;;;;;5034216;28;20037;-79
2024/03/01 10:13:40;;;;;;;1999.90;999.90;;;11.70;99.90;;;;;;5055037;28;20021;-80
2024/03/01 10:16:15;;;;;;;1999.90;999.90;;;11.50;99.90;;;;;;5057064;28;20029;-81
2024/03/01 10:19:15;;;;;;;1999.90;999.90;;;11.40;99.90;;;;;;5054223;28;20107;-81
2024/03/01 10:21:53;;;;;;;1999.90;999.90;;;11.20;99.90;;;;;;5053305;28;20095;-81
2024/03/01 10:24:30;;;;;;;1999.90;999.90;;;11.10;99.90;;;;;;5055320;28;20391;-79
2024/03/01 10:27:09;;;;;;;1999.90;999.90;;;11.10;99.90;;;;;;5054914;28;20500;-80
2024/03/01 10:30:11;;;;;;;1999.90;999.90;;;11.20;99.90;;;;;;5053779;28;20395;-80
2024/03/01 10:33:14;;;;;;;1999.90;999.90;;;11.30;99.90;;;;;;5052589;28;20037;-80
2024/03/01 10:36:02;;;;;;;1999.90;999.90;;;11.40;99.90;;;;;;5036645;28;20472;-80
2024/03/01 10:38:36;;;;;;;1999.90;999.90;;;11.50;99.90;;;;;;5038156;28;20029;-80
2024/03/01 10:41:33;;;;;;;1999.90;999.90;;;11.50;99.90;;;;;;5054743;28;20053;-79
2024/03/01 10:44:05;;;;;;;1999.90;999.90;;;11.60;99.90;;;;;;5018548;28;20097;-81
2024/03/01 10:46:38;;;;;;;1999.90;999.90;;;11.70;99.90;;;;;;5033948;28;20017;-80
2024/03/01 10:49:30;;;;;;;1999.90;999.90;;;11.80;99.90;;;;;;5034599;28;20022;-79
2024/03/01 10:52:10;;;;;;;1999.90;999.90;;;11.90;99.90;;;;;;5031787;28;20034;-80
2024/03/01 10:54:37;;;;;;;1999.90;999.90;;;11.80;99.90;;;;;;5035112;28;20467;-79
2024/03/01 10:57:07;;;;;;;1999.90;999.90;;;11.60;99.90;;;;;;5033426;28;20132;-80
2024/03/01 10:59:38;;;;;;;1999.90;999.90;;;11.50;99.90;;;;;;5034251;28;20040;-79
2024/03/01 11:02:18;;;;;;;1999.90;999.90;;;11.40;99.90;;;;;;5042751;28;20021;-79
2024/03/01 11:04:51;;;;;;;1999.90;999.90;;;11.60;99.90;;;;;;5032253;28;20029;-79
2024/03/01 11:07:47;;;;;;;1999.90;999.90;;;11.80;99.90;;;;;;5042705;28;20507;-79
2024/03/01 11:10:19;;;;;;;1999.90;999.90;;;11.50;99.90;;;;;;5052155;28;20091;-78
2024/03/01 11:12:50;;;;;;;1999.90;999.90;;;11.10;99.90;;;;;;5052513;28;20021;-80
2024/03/01 11:15:20;;;;;;;1999.90;999.90;;;11.00;99.90;;;;;;5053440;28;20526;-80
2024/03/01 11:17:49;;;;;;;1999.90;999.90;;;10.90;99.90;;;;;;5052509;28;20075;-79
2024/03/01 11:20:34;;;;;;;1999.90;999.90;;;11.00;99.90;;;;;;5053921;28;20029;-79
2024/03/01 11:23:08;;;;;;;1999.90;999.90;;;10.90;99.90;;;;;;5053438;28;20029;-79
2024/03/01 11:25:59;;;;;;;1999.90;999.90;;;10.70;99.90;;;;;;5052339;28;20021;-79
2024/03/01 11:28:27;;;;;;;1999.90;999.90;;;10.50;99.90;;;;;;5069341;28;20453;-79
2024/03/01 11:31:00;;;;;;;1999.90;999.90;;;10.50;99.90;;;;;;5057476;28;20462;-81
2024/03/01 11:33:28;;;;;;;1999.90;999.90;;;10.50;99.90;;;;;;5052755;28;20029;-79
2024/03/01 11:36:09;;;;;;;1999.90;999.90;;;10.30;99.90;;;;;;5051341;28;20479;-79
2024/03/01 11:38:52;;;;;;;1999.90;999.90;;;10.30;99.90;;;;;;5051312;28;20055;-80
2024/03/01 11:41:52;;;;;;;1999.90;999.90;;;10.30;99.90;;;;;;5053781;28;20039;-79
2024/03/01 11:44:21;;;;;;;1999.90;999.90;;;10.40;99.90;;;;;;5052952;28;20075;-80
2024/03/01 11:47:15;;;;;;;1999.90;999.90;;;10.60;99.90;;;;;;5052168;28;20101;-80
2024/03/01 11:49:52;;;;;;;1999.90;999.90;;;10.70;99.90;;;;;;5052317;28;20024;-80
2024/03/01 11:52:42;;;;;;;1999.90;999.90;;;10.90;99.90;;;;;;5053465;28;20028;-81
2024/03/01 11:55:30;;;;;;;1999.90;999.90;;;11.10;99.90;;;;;;5054556;28;20047;-79
2024/03/01 11:58:34;;;;;;;1999.90;999.90;;;11.40;99.90;;;;;;5054988;28;20483;-80
2024/03/01 12:01:10;;;;;;;1999.90;999.90;;;11.70;99.90;;;;;;5049838;28;20040;-80
2024/03/01 12:03:40;;;;;;;1999.90;999.90;;;12.10;99.90;;;;;;5050106;28;20033;-81
2024/03/01 12:06:28;;;;;;;1999.90;999.90;;;12.10;99.90;;;;;;5051500;28;20049;-81
2024/03/01 12:09:08;;;;;;;1999.90;999.90;;;12.10;99.90;;;;;;5056998;28;20087;-80
2024/03/01 12:12:15;;;;;;;1999.90;999.90;;;12.30;99.90;;;;;;5054085;28;20028;-81
2024/03/01 12:15:12;;;;;;;1999.90;999.90;;;12.50;99.90;;;;;;5047557;28;20479;-80
2024/03/01 12:18:06;;;;;;;1999.90;999.90;;;12.60;99.90;;;;;;5056434;28;20132;-80